Aeroporto :
LOGIN :

Iscrizione | Disclaimer

   EN    FR    IT 

 










Sommario :    VFR   VFR Marginale   IFR   IFR Intensivo   IFR Molto Intensivo
Visibilità : 
Base nubi : 
>= 8 km
>= 3000ft
5 / 8 km
1000 / 3000 ft
1500m / 5 km
500 / 1000 ft
800 / 1500m
200 / 500 ft
< 800m
< 200 ft
Simboli :   Temporali  Nebbia  Neve Forte  Precipitazioni Forti  Vento > 20 kt
SIGMETs :   Varie  Temporali  Ghiacco  Turbolenza  Onda orograficha  Ceneri Vulcaniche






- Altitudine del aeroporto : 2936 ft


LECH - Calamocha

ULTIMO METAR :
  • 230130Z AUTO 18006KT 9000 NCD 21/18 Q1020

METARs OBSOLETI :
  • 230100Z AUTO 20006KT CAVOK 21/19 Q1020
  • 230030Z AUTO 20006KT 9000 NCD 21/19 Q1020
  • 230000Z AUTO 19006KT 8000 NCD 22/19 Q1020
  • 222330Z AUTO 19005KT 9000 NCD 22/19 Q1020
  • 222300Z AUTO 21004KT 9000 NCD 22/19 Q1021
  • 222230Z AUTO 20003KT 170V230 9000 NCD 22/19 Q1021
  • 222200Z AUTO 20003KT 170V240 CAVOK 22/19 Q1021
  • 222130Z AUTO 22004KT 190V250 CAVOK 23/19 Q1021
  • 222100Z AUTO 20005KT CAVOK 23/19 Q1021
  • 222030Z AUTO 19004KT CAVOK 23/19 Q1020

Previsioni scadute.



MetMap, La meteo Aeronautica in un colpo d'occhio ! - Copyright ORBIFLY Dicembre 2007 - Disclaimer

ORBIFLY MET'MAP TEAM :

Programmazione e sviluppo : Alexandra Zaïnal
Concezione : Baudouin d'Aumeries
Supporto tecnico e logistico : Manuel Goepfert
Aiuto : Marc-Olivier Méhu
Aiuto per la traduzione : Arnaldo La Scala




FONTI E CREDITI :

   NOAA